sensor_id;sensor_type;location;lat;lon;timestamp;P1;durP1;ratioP1;P2;durP2;ratioP2
13147;SDS011;6639;50.956;4.242;2022-12-24T00:01:37;26.30;;;6.55;;
13147;SDS011;6639;50.956;4.242;2022-12-24T00:04:04;30.33;;;7.60;;
13147;SDS011;6639;50.956;4.242;2022-12-24T00:06:32;21.20;;;6.53;;
13147;SDS011;6639;50.956;4.242;2022-12-24T00:08:59;21.42;;;6.03;;
13147;SDS011;6639;50.956;4.242;2022-12-24T00:11:26;28.95;;;6.70;;
13147;SDS011;6639;50.956;4.242;2022-12-24T00:13:54;30.48;;;7.75;;
13147;SDS011;6639;50.956;4.242;2022-12-24T00:16:22;28.52;;;6.43;;
13147;SDS011;6639;50.956;4.242;2022-12-24T00:18:49;19.30;;;5.90;;
13147;SDS011;6639;50.956;4.242;2022-12-24T00:21:16;19.27;;;6.53;;
13147;SDS011;6639;50.956;4.242;2022-12-24T00:23:43;26.30;;;6.40;;
13147;SDS011;6639;50.956;4.242;2022-12-24T00:26:11;24.52;;;5.95;;
13147;SDS011;6639;50.956;4.242;2022-12-24T00:28:38;24.20;;;5.95;;
13147;SDS011;6639;50.956;4.242;2022-12-24T00:31:07;25.88;;;5.97;;
13147;SDS011;6639;50.956;4.242;2022-12-24T00:33:36;24.42;;;6.53;;
13147;SDS011;6639;50.956;4.242;2022-12-24T00:36:03;28.27;;;6.70;;
13147;SDS011;6639;50.956;4.242;2022-12-24T00:38:31;30.35;;;7.43;;
13147;SDS011;6639;50.956;4.242;2022-12-24T00:40:58;27.58;;;5.50;;
13147;SDS011;6639;50.956;4.242;2022-12-24T00:43:26;23.73;;;6.35;;
13147;SDS011;6639;50.956;4.242;2022-12-24T00:45:53;17.50;;;5.07;;
13147;SDS011;6639;50.956;4.242;2022-12-24T00:48:23;21.50;;;6.05;;
13147;SDS011;6639;50.956;4.242;2022-12-24T00:50:50;21.05;;;5.85;;
13147;SDS011;6639;50.956;4.242;2022-12-24T00:53:17;20.90;;;5.57;;
13147;SDS011;6639;50.956;4.242;2022-12-24T00:55:44;19.23;;;5.47;;
13147;SDS011;6639;50.956;4.242;2022-12-24T00:58:11;26.27;;;5.57;;
13147;SDS011;6639;50.956;4.242;2022-12-24T01:00:38;19.00;;;5.38;;
13147;SDS011;6639;50.956;4.242;2022-12-24T01:03:05;23.35;;;6.63;;
13147;SDS011;6639;50.956;4.242;2022-12-24T01:05:35;21.60;;;5.50;;
13147;SDS011;6639;50.956;4.242;2022-12-24T01:08:01;23.80;;;6.47;;
13147;SDS011;6639;50.956;4.242;2022-12-24T01:10:28;26.15;;;6.85;;
13147;SDS011;6639;50.956;4.242;2022-12-24T01:12:55;20.27;;;5.80;;
13147;SDS011;6639;50.956;4.242;2022-12-24T01:15:22;22.85;;;5.28;;
13147;SDS011;6639;50.956;4.242;2022-12-24T01:17:49;30.70;;;7.00;;
13147;SDS011;6639;50.956;4.242;2022-12-24T01:20:16;21.85;;;6.50;;
13147;SDS011;6639;50.956;4.242;2022-12-24T01:22:44;19.75;;;5.28;;
13147;SDS011;6639;50.956;4.242;2022-12-24T01:25:13;25.50;;;4.90;;
13147;SDS011;6639;50.956;4.242;2022-12-24T01:27:40;19.63;;;4.43;;
13147;SDS011;6639;50.956;4.242;2022-12-24T01:30:07;18.65;;;4.13;;
13147;SDS011;6639;50.956;4.242;2022-12-24T01:32:38;19.30;;;4.90;;
13147;SDS011;6639;50.956;4.242;2022-12-24T01:35:05;19.45;;;5.38;;
13147;SDS011;6639;50.956;4.242;2022-12-24T01:37:33;18.20;;;4.70;;
13147;SDS011;6639;50.956;4.242;2022-12-24T01:40:02;24.52;;;5.38;;
13147;SDS011;6639;50.956;4.242;2022-12-24T01:42:47;21.73;;;4.57;;
13147;SDS011;6639;50.956;4.242;2022-12-24T01:45:46;20.23;;;4.50;;
13147;SDS011;6639;50.956;4.242;2022-12-24T01:51:01;22.15;;;5.38;;
13147;SDS011;6639;50.956;4.242;2022-12-24T01:53:33;22.27;;;5.72;;
13147;SDS011;6639;50.956;4.242;2022-12-24T01:56:04;16.73;;;5.38;;
13147;SDS011;6639;50.956;4.242;2022-12-24T01:58:32;17.02;;;5.07;;
13147;SDS011;6639;50.956;4.242;2022-12-24T02:01:01;17.60;;;4.53;;
13147;SDS011;6639;50.956;4.242;2022-12-24T02:03:28;16.70;;;5.18;;
13147;SDS011;6639;50.956;4.242;2022-12-24T02:05:56;24.85;;;5.78;;
13147;SDS011;6639;50.956;4.242;2022-12-24T02:08:24;22.83;;;7.00;;
13147;SDS011;6639;50.956;4.242;2022-12-24T02:11:09;24.63;;;5.93;;
13147;SDS011;6639;50.956;4.242;2022-12-24T02:13:37;22.92;;;5.47;;
13147;SDS011;6639;50.956;4.242;2022-12-24T02:16:06;22.00;;;5.75;;
13147;SDS011;6639;50.956;4.242;2022-12-24T02:18:42;23.65;;;6.35;;
13147;SDS011;6639;50.956;4.242;2022-12-24T02:27:23;19.77;;;5.10;;
13147;SDS011;6639;50.956;4.242;2022-12-24T02:30:07;25.25;;;5.57;;
13147;SDS011;6639;50.956;4.242;2022-12-24T02:32:45;21.48;;;5.53;;
13147;SDS011;6639;50.956;4.242;2022-12-24T02:35:36;21.05;;;5.57;;
13147;SDS011;6639;50.956;4.242;2022-12-24T02:38:11;18.17;;;4.78;;
13147;SDS011;6639;50.956;4.242;2022-12-24T02:40:42;23.52;;;6.43;;
13147;SDS011;6639;50.956;4.242;2022-12-24T02:43:14;24.30;;;5.82;;
13147;SDS011;6639;50.956;4.242;2022-12-24T02:45:47;23.50;;;6.25;;
13147;SDS011;6639;50.956;4.242;2022-12-24T02:48:18;24.60;;;5.45;;
13147;SDS011;6639;50.956;4.242;2022-12-24T02:50:57;23.23;;;5.90;;
13147;SDS011;6639;50.956;4.242;2022-12-24T02:53:28;19.92;;;4.80;;
13147;SDS011;6639;50.956;4.242;2022-12-24T02:55:58;21.10;;;6.65;;
13147;SDS011;6639;50.956;4.242;2022-12-24T02:58:41;18.42;;;5.20;;
13147;SDS011;6639;50.956;4.242;2022-12-24T03:01:15;18.45;;;5.63;;
13147;SDS011;6639;50.956;4.242;2022-12-24T03:03:58;17.63;;;5.80;;
13147;SDS011;6639;50.956;4.242;2022-12-24T03:06:34;19.95;;;5.05;;
13147;SDS011;6639;50.956;4.242;2022-12-24T03:09:07;14.45;;;4.95;;
13147;SDS011;6639;50.956;4.242;2022-12-24T03:11:43;16.90;;;6.28;;
13147;SDS011;6639;50.956;4.242;2022-12-24T03:14:19;22.70;;;7.03;;
13147;SDS011;6639;50.956;4.242;2022-12-24T03:16:49;20.33;;;5.80;;
13147;SDS011;6639;50.956;4.242;2022-12-24T03:19:16;15.18;;;5.80;;
13147;SDS011;6639;50.956;4.242;2022-12-24T03:21:46;14.00;;;5.63;;
13147;SDS011;6639;50.956;4.242;2022-12-24T03:24:15;19.95;;;5.90;;
13147;SDS011;6639;50.956;4.242;2022-12-24T03:26:43;19.52;;;6.10;;
13147;SDS011;6639;50.956;4.242;2022-12-24T03:29:11;22.38;;;5.97;;
13147;SDS011;6639;50.956;4.242;2022-12-24T03:31:39;13.85;;;5.03;;
13147;SDS011;6639;50.956;4.242;2022-12-24T03:34:09;12.25;;;4.53;;
13147;SDS011;6639;50.956;4.242;2022-12-24T03:36:36;16.23;;;5.05;;
13147;SDS011;6639;50.956;4.242;2022-12-24T03:39:03;16.20;;;5.78;;
13147;SDS011;6639;50.956;4.242;2022-12-24T03:41:31;18.45;;;5.60;;
13147;SDS011;6639;50.956;4.242;2022-12-24T03:43:58;14.68;;;4.80;;
13147;SDS011;6639;50.956;4.242;2022-12-24T03:46:25;14.38;;;5.45;;
13147;SDS011;6639;50.956;4.242;2022-12-24T03:48:52;19.10;;;5.63;;
13147;SDS011;6639;50.956;4.242;2022-12-24T03:51:21;17.88;;;5.65;;
13147;SDS011;6639;50.956;4.242;2022-12-24T03:53:50;18.70;;;6.40;;
13147;SDS011;6639;50.956;4.242;2022-12-24T03:56:18;18.25;;;6.70;;
13147;SDS011;6639;50.956;4.242;2022-12-24T03:58:46;22.83;;;6.60;;
13147;SDS011;6639;50.956;4.242;2022-12-24T04:01:13;17.45;;;6.88;;
13147;SDS011;6639;50.956;4.242;2022-12-24T04:03:40;24.65;;;7.38;;
13147;SDS011;6639;50.956;4.242;2022-12-24T04:06:08;20.15;;;5.72;;
13147;SDS011;6639;50.956;4.242;2022-12-24T04:08:38;18.75;;;6.70;;
13147;SDS011;6639;50.956;4.242;2022-12-24T04:11:08;21.40;;;7.57;;
13147;SDS011;6639;50.956;4.242;2022-12-24T04:13:37;27.13;;;6.20;;
13147;SDS011;6639;50.956;4.242;2022-12-24T04:16:05;24.13;;;6.30;;
13147;SDS011;6639;50.956;4.242;2022-12-24T04:18:33;22.58;;;6.18;;
13147;SDS011;6639;50.956;4.242;2022-12-24T04:21:01;24.08;;;7.30;;
13147;SDS011;6639;50.956;4.242;2022-12-24T04:23:29;25.80;;;7.35;;
13147;SDS011;6639;50.956;4.242;2022-12-24T04:25:59;27.45;;;6.18;;
13147;SDS011;6639;50.956;4.242;2022-12-24T04:28:27;21.13;;;6.35;;
13147;SDS011;6639;50.956;4.242;2022-12-24T04:30:56;24.02;;;5.78;;
13147;SDS011;6639;50.956;4.242;2022-12-24T04:33:24;23.08;;;6.18;;
13147;SDS011;6639;50.956;4.242;2022-12-24T04:35:52;17.55;;;6.07;;
13147;SDS011;6639;50.956;4.242;2022-12-24T04:38:19;19.40;;;6.53;;
13147;SDS011;6639;50.956;4.242;2022-12-24T04:40:46;24.85;;;6.70;;
13147;SDS011;6639;50.956;4.242;2022-12-24T04:43:14;21.95;;;6.00;;
13147;SDS011;6639;50.956;4.242;2022-12-24T04:45:42;19.35;;;6.00;;
13147;SDS011;6639;50.956;4.242;2022-12-24T04:48:09;26.92;;;6.68;;
13147;SDS011;6639;50.956;4.242;2022-12-24T04:50:36;20.75;;;5.13;;
13147;SDS011;6639;50.956;4.242;2022-12-24T04:53:02;16.38;;;5.90;;
13147;SDS011;6639;50.956;4.242;2022-12-24T04:55:30;20.77;;;5.90;;
13147;SDS011;6639;50.956;4.242;2022-12-24T04:57:57;24.58;;;6.70;;
13147;SDS011;6639;50.956;4.242;2022-12-24T05:00:25;26.58;;;5.90;;
13147;SDS011;6639;50.956;4.242;2022-12-24T05:02:53;19.77;;;6.00;;
13147;SDS011;6639;50.956;4.242;2022-12-24T05:05:20;26.25;;;6.15;;
13147;SDS011;6639;50.956;4.242;2022-12-24T05:07:47;21.30;;;5.50;;
13147;SDS011;6639;50.956;4.242;2022-12-24T05:10:14;22.33;;;6.45;;
13147;SDS011;6639;50.956;4.242;2022-12-24T05:12:41;16.63;;;6.00;;
13147;SDS011;6639;50.956;4.242;2022-12-24T05:15:08;19.92;;;5.60;;
13147;SDS011;6639;50.956;4.242;2022-12-24T05:17:36;25.00;;;5.72;;
13147;SDS011;6639;50.956;4.242;2022-12-24T05:20:04;27.20;;;6.80;;
13147;SDS011;6639;50.956;4.242;2022-12-24T05:22:32;29.08;;;6.75;;
13147;SDS011;6639;50.956;4.242;2022-12-24T05:25:16;22.35;;;6.47;;
13147;SDS011;6639;50.956;4.242;2022-12-24T05:28:00;21.10;;;5.65;;
13147;SDS011;6639;50.956;4.242;2022-12-24T05:30:27;24.30;;;6.00;;
13147;SDS011;6639;50.956;4.242;2022-12-24T05:32:57;25.30;;;5.80;;
13147;SDS011;6639;50.956;4.242;2022-12-24T05:35:24;22.08;;;5.53;;
13147;SDS011;6639;50.956;4.242;2022-12-24T05:37:51;23.55;;;5.53;;
13147;SDS011;6639;50.956;4.242;2022-12-24T05:40:24;27.35;;;6.25;;
13147;SDS011;6639;50.956;4.242;2022-12-24T05:42:51;26.95;;;6.32;;
13147;SDS011;6639;50.956;4.242;2022-12-24T05:45:18;23.90;;;5.97;;
13147;SDS011;6639;50.956;4.242;2022-12-24T05:47:45;27.85;;;6.60;;
13147;SDS011;6639;50.956;4.242;2022-12-24T05:50:13;17.35;;;6.60;;
13147;SDS011;6639;50.956;4.242;2022-12-24T05:52:40;28.23;;;5.30;;
13147;SDS011;6639;50.956;4.242;2022-12-24T05:55:08;21.98;;;6.07;;
13147;SDS011;6639;50.956;4.242;2022-12-24T05:57:35;19.05;;;5.15;;
13147;SDS011;6639;50.956;4.242;2022-12-24T06:00:02;25.55;;;6.20;;
13147;SDS011;6639;50.956;4.242;2022-12-24T06:02:30;18.65;;;5.72;;
13147;SDS011;6639;50.956;4.242;2022-12-24T06:04:57;24.55;;;7.32;;
13147;SDS011;6639;50.956;4.242;2022-12-24T06:07:25;20.20;;;5.32;;
13147;SDS011;6639;50.956;4.242;2022-12-24T06:09:52;22.02;;;6.15;;
13147;SDS011;6639;50.956;4.242;2022-12-24T06:12:19;29.58;;;6.50;;
13147;SDS011;6639;50.956;4.242;2022-12-24T06:14:46;30.15;;;7.10;;
13147;SDS011;6639;50.956;4.242;2022-12-24T06:17:13;23.33;;;5.60;;
13147;SDS011;6639;50.956;4.242;2022-12-24T06:19:40;25.05;;;8.48;;
13147;SDS011;6639;50.956;4.242;2022-12-24T06:22:07;22.75;;;6.95;;
13147;SDS011;6639;50.956;4.242;2022-12-24T06:24:35;19.85;;;5.75;;
13147;SDS011;6639;50.956;4.242;2022-12-24T06:27:02;27.20;;;6.15;;
13147;SDS011;6639;50.956;4.242;2022-12-24T06:29:29;31.00;;;7.18;;
13147;SDS011;6639;50.956;4.242;2022-12-24T06:31:56;19.38;;;5.40;;
13147;SDS011;6639;50.956;4.242;2022-12-24T06:34:24;25.25;;;7.10;;
13147;SDS011;6639;50.956;4.242;2022-12-24T06:36:51;21.40;;;6.75;;
13147;SDS011;6639;50.956;4.242;2022-12-24T06:39:18;27.13;;;6.88;;
13147;SDS011;6639;50.956;4.242;2022-12-24T06:41:46;19.15;;;6.13;;
13147;SDS011;6639;50.956;4.242;2022-12-24T06:44:13;27.77;;;6.65;;
13147;SDS011;6639;50.956;4.242;2022-12-24T06:46:40;31.00;;;6.53;;
13147;SDS011;6639;50.956;4.242;2022-12-24T06:49:07;27.83;;;5.68;;
13147;SDS011;6639;50.956;4.242;2022-12-24T06:51:34;26.20;;;7.25;;
13147;SDS011;6639;50.956;4.242;2022-12-24T06:54:01;23.88;;;6.45;;
13147;SDS011;6639;50.956;4.242;2022-12-24T06:56:28;27.17;;;5.35;;
13147;SDS011;6639;50.956;4.242;2022-12-24T06:58:56;26.38;;;6.22;;
13147;SDS011;6639;50.956;4.242;2022-12-24T07:01:23;22.27;;;6.75;;
13147;SDS011;6639;50.956;4.242;2022-12-24T07:03:50;30.67;;;7.72;;
13147;SDS011;6639;50.956;4.242;2022-12-24T07:06:18;22.88;;;6.25;;
13147;SDS011;6639;50.956;4.242;2022-12-24T07:08:49;24.35;;;5.85;;
13147;SDS011;6639;50.956;4.242;2022-12-24T07:11:16;26.55;;;6.10;;
13147;SDS011;6639;50.956;4.242;2022-12-24T07:13:43;23.95;;;6.88;;
13147;SDS011;6639;50.956;4.242;2022-12-24T07:16:12;26.08;;;6.95;;
13147;SDS011;6639;50.956;4.242;2022-12-24T07:18:40;31.90;;;8.40;;
13147;SDS011;6639;50.956;4.242;2022-12-24T07:21:07;27.27;;;7.03;;
13147;SDS011;6639;50.956;4.242;2022-12-24T07:23:36;23.83;;;6.07;;
13147;SDS011;6639;50.956;4.242;2022-12-24T07:26:03;28.70;;;6.93;;
13147;SDS011;6639;50.956;4.242;2022-12-24T07:28:31;27.25;;;7.25;;
13147;SDS011;6639;50.956;4.242;2022-12-24T07:30:59;27.08;;;6.47;;
13147;SDS011;6639;50.956;4.242;2022-12-24T07:33:30;24.90;;;6.55;;
13147;SDS011;6639;50.956;4.242;2022-12-24T07:35:58;23.52;;;6.80;;
13147;SDS011;6639;50.956;4.242;2022-12-24T07:38:28;18.45;;;5.53;;
13147;SDS011;6639;50.956;4.242;2022-12-24T07:40:56;23.90;;;6.78;;
13147;SDS011;6639;50.956;4.242;2022-12-24T07:43:23;23.33;;;6.28;;
13147;SDS011;6639;50.956;4.242;2022-12-24T07:45:54;29.23;;;7.97;;
13147;SDS011;6639;50.956;4.242;2022-12-24T07:48:22;22.95;;;7.40;;
13147;SDS011;6639;50.956;4.242;2022-12-24T07:50:51;29.50;;;6.72;;
13147;SDS011;6639;50.956;4.242;2022-12-24T07:53:21;25.40;;;6.45;;
13147;SDS011;6639;50.956;4.242;2022-12-24T07:55:50;22.95;;;7.03;;
13147;SDS011;6639;50.956;4.242;2022-12-24T07:58:17;29.80;;;7.28;;
13147;SDS011;6639;50.956;4.242;2022-12-24T08:00:45;28.05;;;7.68;;
13147;SDS011;6639;50.956;4.242;2022-12-24T08:03:14;27.27;;;6.65;;
13147;SDS011;6639;50.956;4.242;2022-12-24T08:05:44;25.60;;;6.88;;
13147;SDS011;6639;50.956;4.242;2022-12-24T08:08:17;21.65;;;6.20;;
13147;SDS011;6639;50.956;4.242;2022-12-24T08:10:44;19.35;;;6.28;;
13147;SDS011;6639;50.956;4.242;2022-12-24T08:13:15;23.55;;;5.97;;
13147;SDS011;6639;50.956;4.242;2022-12-24T08:15:43;30.88;;;7.80;;
13147;SDS011;6639;50.956;4.242;2022-12-24T08:18:12;27.52;;;7.50;;
13147;SDS011;6639;50.956;4.242;2022-12-24T08:20:39;25.83;;;6.70;;
13147;SDS011;6639;50.956;4.242;2022-12-24T08:23:07;28.60;;;6.97;;
13147;SDS011;6639;50.956;4.242;2022-12-24T08:25:36;24.00;;;6.72;;
13147;SDS011;6639;50.956;4.242;2022-12-24T08:28:03;23.85;;;6.72;;
13147;SDS011;6639;50.956;4.242;2022-12-24T08:30:30;28.73;;;6.03;;
13147;SDS011;6639;50.956;4.242;2022-12-24T08:32:58;28.50;;;6.95;;
13147;SDS011;6639;50.956;4.242;2022-12-24T08:35:25;30.27;;;8.20;;
13147;SDS011;6639;50.956;4.242;2022-12-24T08:37:52;24.42;;;6.35;;
13147;SDS011;6639;50.956;4.242;2022-12-24T08:40:19;36.13;;;6.75;;
13147;SDS011;6639;50.956;4.242;2022-12-24T08:42:47;27.75;;;7.32;;
13147;SDS011;6639;50.956;4.242;2022-12-24T08:45:16;28.10;;;6.90;;
13147;SDS011;6639;50.956;4.242;2022-12-24T08:47:44;26.23;;;6.20;;
13147;SDS011;6639;50.956;4.242;2022-12-24T08:50:11;30.58;;;7.13;;
13147;SDS011;6639;50.956;4.242;2022-12-24T08:52:38;24.92;;;6.95;;
13147;SDS011;6639;50.956;4.242;2022-12-24T08:55:05;26.02;;;6.47;;
13147;SDS011;6639;50.956;4.242;2022-12-24T08:57:34;17.98;;;6.32;;
13147;SDS011;6639;50.956;4.242;2022-12-24T09:00:03;25.95;;;6.28;;
13147;SDS011;6639;50.956;4.242;2022-12-24T09:02:32;29.02;;;7.05;;
13147;SDS011;6639;50.956;4.242;2022-12-24T09:04:59;24.42;;;6.75;;
13147;SDS011;6639;50.956;4.242;2022-12-24T09:07:26;32.05;;;8.15;;
13147;SDS011;6639;50.956;4.242;2022-12-24T09:09:53;28.35;;;6.15;;
13147;SDS011;6639;50.956;4.242;2022-12-24T09:12:23;23.42;;;6.72;;
13147;SDS011;6639;50.956;4.242;2022-12-24T09:14:52;23.48;;;6.82;;
13147;SDS011;6639;50.956;4.242;2022-12-24T09:17:20;33.05;;;6.70;;
13147;SDS011;6639;50.956;4.242;2022-12-24T09:19:50;24.73;;;6.03;;
13147;SDS011;6639;50.956;4.242;2022-12-24T09:22:17;24.13;;;6.80;;
13147;SDS011;6639;50.956;4.242;2022-12-24T09:24:44;25.55;;;6.07;;
13147;SDS011;6639;50.956;4.242;2022-12-24T09:27:11;23.90;;;6.22;;
13147;SDS011;6639;50.956;4.242;2022-12-24T09:29:38;23.33;;;6.55;;
13147;SDS011;6639;50.956;4.242;2022-12-24T09:32:06;26.30;;;7.18;;
13147;SDS011;6639;50.956;4.242;2022-12-24T09:34:34;26.38;;;6.55;;
13147;SDS011;6639;50.956;4.242;2022-12-24T09:37:01;23.65;;;6.60;;
13147;SDS011;6639;50.956;4.242;2022-12-24T09:39:28;22.48;;;6.88;;
13147;SDS011;6639;50.956;4.242;2022-12-24T09:41:57;30.13;;;8.10;;
13147;SDS011;6639;50.956;4.242;2022-12-24T09:44:33;21.30;;;6.60;;
13147;SDS011;6639;50.956;4.242;2022-12-24T09:47:09;25.98;;;5.72;;
13147;SDS011;6639;50.956;4.242;2022-12-24T09:49:45;27.67;;;7.15;;
13147;SDS011;6639;50.956;4.242;2022-12-24T09:52:18;25.20;;;7.28;;
13147;SDS011;6639;50.956;4.242;2022-12-24T09:54:54;28.42;;;6.95;;
13147;SDS011;6639;50.956;4.242;2022-12-24T09:57:27;27.85;;;7.10;;
13147;SDS011;6639;50.956;4.242;2022-12-24T09:59:58;25.65;;;6.03;;
13147;SDS011;6639;50.956;4.242;2022-12-24T10:02:25;28.80;;;6.78;;
13147;SDS011;6639;50.956;4.242;2022-12-24T10:04:53;23.05;;;7.05;;
13147;SDS011;6639;50.956;4.242;2022-12-24T10:07:27;24.17;;;6.00;;
13147;SDS011;6639;50.956;4.242;2022-12-24T10:10:02;26.73;;;7.43;;
13147;SDS011;6639;50.956;4.242;2022-12-24T10:12:39;25.83;;;6.03;;
13147;SDS011;6639;50.956;4.242;2022-12-24T10:15:20;25.67;;;6.95;;
13147;SDS011;6639;50.956;4.242;2022-12-24T10:18:00;21.45;;;6.10;;
13147;SDS011;6639;50.956;4.242;2022-12-24T10:20:43;23.45;;;6.38;;
13147;SDS011;6639;50.956;4.242;2022-12-24T10:23:14;28.38;;;7.72;;
13147;SDS011;6639;50.956;4.242;2022-12-24T10:25:48;23.52;;;6.85;;
13147;SDS011;6639;50.956;4.242;2022-12-24T10:28:27;26.40;;;6.85;;
13147;SDS011;6639;50.956;4.242;2022-12-24T10:30:58;24.80;;;7.13;;
13147;SDS011;6639;50.956;4.242;2022-12-24T10:33:30;28.80;;;7.30;;
13147;SDS011;6639;50.956;4.242;2022-12-24T10:36:04;19.17;;;6.55;;
13147;SDS011;6639;50.956;4.242;2022-12-24T10:38:34;17.92;;;6.13;;
13147;SDS011;6639;50.956;4.242;2022-12-24T10:41:01;26.90;;;7.10;;
13147;SDS011;6639;50.956;4.242;2022-12-24T10:43:29;22.85;;;6.68;;
13147;SDS011;6639;50.956;4.242;2022-12-24T10:45:59;22.83;;;7.30;;
13147;SDS011;6639;50.956;4.242;2022-12-24T10:48:28;27.58;;;7.80;;
13147;SDS011;6639;50.956;4.242;2022-12-24T10:51:01;24.27;;;7.10;;
13147;SDS011;6639;50.956;4.242;2022-12-24T10:53:34;23.58;;;6.32;;
13147;SDS011;6639;50.956;4.242;2022-12-24T10:56:06;23.50;;;6.25;;
13147;SDS011;6639;50.956;4.242;2022-12-24T10:58:39;24.05;;;6.47;;
13147;SDS011;6639;50.956;4.242;2022-12-24T11:01:09;25.92;;;6.03;;
13147;SDS011;6639;50.956;4.242;2022-12-24T11:03:37;28.75;;;7.25;;
13147;SDS011;6639;50.956;4.242;2022-12-24T11:06:06;18.33;;;6.47;;
13147;SDS011;6639;50.956;4.242;2022-12-24T11:08:36;22.52;;;5.82;;
13147;SDS011;6639;50.956;4.242;2022-12-24T11:11:06;25.15;;;7.00;;
13147;SDS011;6639;50.956;4.242;2022-12-24T11:13:35;17.35;;;6.30;;
13147;SDS011;6639;50.956;4.242;2022-12-24T11:16:06;20.58;;;6.00;;
13147;SDS011;6639;50.956;4.242;2022-12-24T11:18:36;20.00;;;6.60;;
13147;SDS011;6639;50.956;4.242;2022-12-24T11:21:11;21.42;;;6.43;;
13147;SDS011;6639;50.956;4.242;2022-12-24T11:23:47;24.70;;;7.03;;
13147;SDS011;6639;50.956;4.242;2022-12-24T11:26:20;21.92;;;6.60;;
13147;SDS011;6639;50.956;4.242;2022-12-24T11:29:02;23.27;;;6.53;;
13147;SDS011;6639;50.956;4.242;2022-12-24T11:31:31;25.30;;;7.18;;
13147;SDS011;6639;50.956;4.242;2022-12-24T11:34:02;21.77;;;6.93;;
13147;SDS011;6639;50.956;4.242;2022-12-24T11:36:45;29.52;;;7.80;;
13147;SDS011;6639;50.956;4.242;2022-12-24T11:39:16;26.58;;;7.38;;
13147;SDS011;6639;50.956;4.242;2022-12-24T11:41:45;17.40;;;6.63;;
13147;SDS011;6639;50.956;4.242;2022-12-24T11:44:12;25.73;;;6.63;;
13147;SDS011;6639;50.956;4.242;2022-12-24T11:46:41;29.55;;;7.05;;
13147;SDS011;6639;50.956;4.242;2022-12-24T11:49:15;24.30;;;6.47;;
13147;SDS011;6639;50.956;4.242;2022-12-24T11:55:06;25.90;;;6.80;;
13147;SDS011;6639;50.956;4.242;2022-12-24T11:57:46;21.98;;;7.03;;
13147;SDS011;6639;50.956;4.242;2022-12-24T12:00:18;18.77;;;6.18;;
13147;SDS011;6639;50.956;4.242;2022-12-24T12:02:45;20.75;;;5.82;;
13147;SDS011;6639;50.956;4.242;2022-12-24T12:05:17;16.15;;;6.78;;
13147;SDS011;6639;50.956;4.242;2022-12-24T12:07:49;25.15;;;7.38;;
13147;SDS011;6639;50.956;4.242;2022-12-24T12:10:21;27.27;;;7.22;;
13147;SDS011;6639;50.956;4.242;2022-12-24T12:12:53;16.80;;;5.72;;
13147;SDS011;6639;50.956;4.242;2022-12-24T12:15:23;23.25;;;6.88;;
13147;SDS011;6639;50.956;4.242;2022-12-24T12:17:54;25.13;;;7.20;;
13147;SDS011;6639;50.956;4.242;2022-12-24T12:20:27;22.95;;;7.05;;
13147;SDS011;6639;50.956;4.242;2022-12-24T12:23:01;24.75;;;7.15;;
13147;SDS011;6639;50.956;4.242;2022-12-24T12:25:37;17.33;;;6.50;;
13147;SDS011;6639;50.956;4.242;2022-12-24T12:28:12;21.77;;;7.85;;
13147;SDS011;6639;50.956;4.242;2022-12-24T12:30:44;26.80;;;7.35;;
13147;SDS011;6639;50.956;4.242;2022-12-24T12:33:17;22.85;;;8.30;;
13147;SDS011;6639;50.956;4.242;2022-12-24T12:35:49;24.30;;;8.07;;
13147;SDS011;6639;50.956;4.242;2022-12-24T12:38:21;20.65;;;7.18;;
13147;SDS011;6639;50.956;4.242;2022-12-24T12:40:56;20.95;;;7.30;;
13147;SDS011;6639;50.956;4.242;2022-12-24T12:43:49;20.77;;;6.97;;
13147;SDS011;6639;50.956;4.242;2022-12-24T12:46:46;24.75;;;7.55;;
13147;SDS011;6639;50.956;4.242;2022-12-24T12:49:31;21.35;;;7.95;;
13147;SDS011;6639;50.956;4.242;2022-12-24T12:52:07;21.17;;;6.47;;
13147;SDS011;6639;50.956;4.242;2022-12-24T12:54:49;23.08;;;7.72;;
13147;SDS011;6639;50.956;4.242;2022-12-24T12:57:30;21.08;;;7.50;;
13147;SDS011;6639;50.956;4.242;2022-12-24T13:00:02;22.70;;;7.00;;
13147;SDS011;6639;50.956;4.242;2022-12-24T13:02:47;25.42;;;7.95;;
13147;SDS011;6639;50.956;4.242;2022-12-24T13:05:50;17.30;;;6.65;;
13147;SDS011;6639;50.956;4.242;2022-12-24T13:08:40;30.75;;;8.25;;
13147;SDS011;6639;50.956;4.242;2022-12-24T13:11:31;19.60;;;7.53;;
13147;SDS011;6639;50.956;4.242;2022-12-24T13:14:13;20.55;;;8.18;;
13147;SDS011;6639;50.956;4.242;2022-12-24T13:17:01;21.25;;;7.78;;
13147;SDS011;6639;50.956;4.242;2022-12-24T13:20:01;21.08;;;7.80;;
13147;SDS011;6639;50.956;4.242;2022-12-24T13:22:39;21.40;;;8.40;;
13147;SDS011;6639;50.956;4.242;2022-12-24T13:25:17;21.33;;;7.97;;
13147;SDS011;6639;50.956;4.242;2022-12-24T13:27:49;21.33;;;8.48;;
13147;SDS011;6639;50.956;4.242;2022-12-24T13:30:33;26.58;;;8.45;;
13147;SDS011;6639;50.956;4.242;2022-12-24T13:33:02;27.75;;;9.13;;
13147;SDS011;6639;50.956;4.242;2022-12-24T13:35:34;23.98;;;8.45;;
13147;SDS011;6639;50.956;4.242;2022-12-24T13:44:17;28.15;;;8.02;;
13147;SDS011;6639;50.956;4.242;2022-12-24T13:46:49;26.70;;;7.30;;
13147;SDS011;6639;50.956;4.242;2022-12-24T13:49:26;26.38;;;7.80;;
13147;SDS011;6639;50.956;4.242;2022-12-24T13:52:15;24.15;;;7.18;;
13147;SDS011;6639;50.956;4.242;2022-12-24T13:54:46;27.73;;;8.13;;
13147;SDS011;6639;50.956;4.242;2022-12-24T13:57:30;22.90;;;7.38;;
13147;SDS011;6639;50.956;4.242;2022-12-24T14:00:03;25.75;;;7.53;;
13147;SDS011;6639;50.956;4.242;2022-12-24T14:02:34;22.05;;;7.32;;
13147;SDS011;6639;50.956;4.242;2022-12-24T14:05:07;24.42;;;9.32;;
13147;SDS011;6639;50.956;4.242;2022-12-24T14:07:44;25.70;;;8.90;;
13147;SDS011;6639;50.956;4.242;2022-12-24T14:10:18;23.42;;;9.10;;
13147;SDS011;6639;50.956;4.242;2022-12-24T14:12:49;19.65;;;7.25;;
13147;SDS011;6639;50.956;4.242;2022-12-24T14:18:27;24.30;;;8.82;;
13147;SDS011;6639;50.956;4.242;2022-12-24T14:20:56;21.10;;;7.47;;
13147;SDS011;6639;50.956;4.242;2022-12-24T14:23:30;22.73;;;8.20;;
13147;SDS011;6639;50.956;4.242;2022-12-24T14:26:03;19.80;;;7.50;;
13147;SDS011;6639;50.956;4.242;2022-12-24T14:28:39;22.73;;;7.13;;
13147;SDS011;6639;50.956;4.242;2022-12-24T14:31:16;25.10;;;7.47;;
13147;SDS011;6639;50.956;4.242;2022-12-24T14:33:46;22.20;;;7.90;;
13147;SDS011;6639;50.956;4.242;2022-12-24T14:36:14;23.23;;;8.52;;
13147;SDS011;6639;50.956;4.242;2022-12-24T14:38:45;21.42;;;8.65;;
13147;SDS011;6639;50.956;4.242;2022-12-24T14:44:03;22.92;;;8.82;;
13147;SDS011;6639;50.956;4.242;2022-12-24T14:46:41;23.95;;;8.85;;
13147;SDS011;6639;50.956;4.242;2022-12-24T14:49:16;32.00;;;9.73;;
13147;SDS011;6639;50.956;4.242;2022-12-24T14:51:55;24.27;;;10.32;;
13147;SDS011;6639;50.956;4.242;2022-12-24T14:54:33;19.73;;;9.38;;
13147;SDS011;6639;50.956;4.242;2022-12-24T14:57:08;19.80;;;9.63;;
13147;SDS011;6639;50.956;4.242;2022-12-24T14:59:45;22.25;;;10.00;;
13147;SDS011;6639;50.956;4.242;2022-12-24T15:05:12;26.88;;;10.57;;
13147;SDS011;6639;50.956;4.242;2022-12-24T15:07:44;23.80;;;11.32;;
13147;SDS011;6639;50.956;4.242;2022-12-24T15:10:29;27.55;;;10.75;;
13147;SDS011;6639;50.956;4.242;2022-12-24T15:13:00;26.35;;;11.82;;
13147;SDS011;6639;50.956;4.242;2022-12-24T15:15:29;19.40;;;10.80;;
13147;SDS011;6639;50.956;4.242;2022-12-24T15:17:58;24.40;;;10.38;;
13147;SDS011;6639;50.956;4.242;2022-12-24T15:20:27;25.02;;;10.43;;
13147;SDS011;6639;50.956;4.242;2022-12-24T15:22:56;32.13;;;11.07;;
13147;SDS011;6639;50.956;4.242;2022-12-24T15:25:26;27.17;;;9.43;;
13147;SDS011;6639;50.956;4.242;2022-12-24T15:27:54;28.00;;;10.90;;
13147;SDS011;6639;50.956;4.242;2022-12-24T15:30:22;26.05;;;10.32;;
13147;SDS011;6639;50.956;4.242;2022-12-24T15:32:50;22.73;;;10.35;;
13147;SDS011;6639;50.956;4.242;2022-12-24T15:35:30;24.83;;;10.25;;
13147;SDS011;6639;50.956;4.242;2022-12-24T15:37:59;30.08;;;10.35;;